Time;durP1;ratioP1;P1;durP2;ratioP2;P2;SDS_P1;SDS_P2;PMS_P1;PMS_P2;Temp;Humidity;BMP_temperature;BMP_pressure;BME280_temperature;BME280_humidity;BME280_pressure;Samples;Min_cycle;Max_cycle;Signal;HPM_P1;HPM_P2
2021/03/27 00:02:22;;;;;;;22.48;15.60;;;10.50;88.10;;;;;;8294356;28;20511;-70
2021/03/27 00:06:58;;;;;;;23.45;14.43;;;10.50;88.20;;;;;;8290537;28;20055;-70
2021/03/27 00:11:15;;;;;;;22.83;15.27;;;10.40;88.10;;;;;;8265953;28;20601;-70
2021/03/27 00:15:32;;;;;;;21.67;13.65;;;10.40;88.10;;;;;;8294403;28;20046;-71
2021/03/27 00:19:43;;;;;;;18.52;13.50;;;10.40;88.10;;;;;;8288788;28;20415;-71
2021/03/27 00:24:01;;;;;;;19.02;12.80;;;10.30;87.80;;;;;;8268712;28;20054;-71
2021/03/27 00:28:23;;;;;;;19.65;13.43;;;10.30;87.80;;;;;;8294363;28;20046;-71
2021/03/27 00:32:57;;;;;;;;;;;10.20;87.90;;;;;;8290006;28;20045;-71
2021/03/27 00:37:10;;;;;;;19.25;12.63;;;10.20;88.40;;;;;;8270947;28;19928;-70
2021/03/27 00:41:22;;;;;;;20.23;13.35;;;10.10;88.10;;;;;;8265864;28;20053;-70
2021/03/27 00:45:38;;;;;;;20.27;12.85;;;10.10;88.10;;;;;;8272436;28;20072;-71
2021/03/27 00:50:01;;;;;;;20.23;14.00;;;10.00;88.10;;;;;;8253770;28;20419;-71
2021/03/27 00:54:15;;;;;;;21.15;13.02;;;10.00;88.20;;;;;;8265400;28;20515;-70
2021/03/27 00:58:33;;;;;;;20.75;13.35;;;10.00;88.10;;;;;;8285211;28;20037;-70
2021/03/27 01:02:50;;;;;;;20.15;13.95;;;9.90;88.20;;;;;;8281029;28;20050;-70
2021/03/27 01:07:14;;;;;;;18.93;13.13;;;9.80;88.40;;;;;;8295594;28;20578;-70
2021/03/27 01:11:54;;;;;;;20.63;13.00;;;9.80;88.40;;;;;;8238827;28;20866;-69
2021/03/27 01:16:03;;;;;;;19.92;12.70;;;9.80;88.40;;;;;;8252844;28;20045;-69
2021/03/27 01:20:19;;;;;;;19.10;13.10;;;9.70;88.50;;;;;;8258637;28;20049;-70
2021/03/27 01:24:27;;;;;;;18.90;13.15;;;9.70;88.50;;;;;;8249620;28;20513;-70
2021/03/27 01:28:34;;;;;;;21.25;13.05;;;9.60;88.50;;;;;;8284752;28;20052;-70
2021/03/27 01:32:57;;;;;;;19.25;12.25;;;9.60;88.50;;;;;;8290290;28;20049;-70
2021/03/27 01:37:38;;;;;;;18.98;11.30;;;9.60;88.50;;;;;;8280120;28;20052;-70
2021/03/27 01:42:02;;;;;;;19.55;12.15;;;9.60;88.40;;;;;;8271907;28;20466;-70
2021/03/27 01:46:16;;;;;;;19.25;12.02;;;9.60;88.50;;;;;;8289944;28;20042;-70
2021/03/27 01:50:52;;;;;;;21.55;11.75;;;9.50;88.30;;;;;;8269996;28;20092;-74
2021/03/27 01:55:13;;;;;;;16.48;11.20;;;9.50;88.20;;;;;;8230661;28;20053;-72
2021/03/27 01:59:31;;;;;;;17.60;10.15;;;9.50;88.10;;;;;;8303326;28;20069;-72
2021/03/27 02:03:47;;;;;;;16.27;10.30;;;9.50;88.00;;;;;;8298260;28;20041;-70
2021/03/27 02:07:57;;;;;;;18.35;9.95;;;9.50;87.90;;;;;;8280865;28;20068;-72
2021/03/27 02:12:29;;;;;;;15.32;8.93;;;9.60;87.80;;;;;;8259415;28;20049;-73
2021/03/27 02:16:36;;;;;;;;;;;9.60;87.80;;;;;;8295896;28;20747;-73
2021/03/27 02:21:18;;;;;;;15.68;9.30;;;9.60;88.20;;;;;;8282362;28;19925;-72
2021/03/27 02:25:31;;;;;;;;;;;9.60;87.70;;;;;;8280300;28;20049;-71
2021/03/27 02:29:54;;;;;;;15.93;8.73;;;9.60;87.70;;;;;;8279997;28;19964;-73
2021/03/27 02:34:13;;;;;;;14.48;9.02;;;9.60;87.60;;;;;;8278101;28;20058;-72
2021/03/27 02:38:39;;;;;;;15.57;8.70;;;9.70;87.40;;;;;;8266842;28;20053;-72
2021/03/27 02:43:18;;;;;;;14.27;9.02;;;9.70;87.20;;;;;;8289582;28;20029;-71
2021/03/27 02:47:36;;;;;;;15.98;9.57;;;9.70;87.40;;;;;;8270397;28;20099;-72
2021/03/27 02:51:56;;;;;;;12.60;8.45;;;9.70;87.40;;;;;;8282075;28;20060;-71
2021/03/27 02:56:18;;;;;;;12.93;9.02;;;9.70;87.40;;;;;;8279656;28;21914;-71
2021/03/27 03:00:42;;;;;;;14.70;9.43;;;9.70;87.40;;;;;;8297961;28;20050;-72
2021/03/27 03:05:19;;;;;;;13.68;9.15;;;9.70;87.50;;;;;;8270010;28;20097;-71
2021/03/27 03:09:46;;;;;;;15.75;9.13;;;9.70;87.50;;;;;;8293534;28;20579;-72
2021/03/27 03:14:18;;;;;;;14.18;8.63;;;9.70;87.40;;;;;;8251937;28;20148;-71
2021/03/27 03:18:35;;;;;;;14.82;9.27;;;9.70;87.40;;;;;;8253038;28;20220;-72
2021/03/27 03:22:57;;;;;;;13.35;8.80;;;9.80;87.40;;;;;;8284910;28;20628;-72
2021/03/27 03:27:38;;;;;;;11.93;8.83;;;9.70;87.40;;;;;;8281747;28;20503;-72
2021/03/27 03:32:12;;;;;;;14.85;8.25;;;9.80;87.10;;;;;;8294191;28;20407;-72
2021/03/27 03:36:53;;;;;;;13.85;9.35;;;9.80;87.40;;;;;;8276411;28;20038;-71
2021/03/27 03:41:17;;;;;;;14.10;8.88;;;9.80;88.00;;;;;;8291353;28;20084;-70
2021/03/27 03:45:51;;;;;;;17.00;8.98;;;9.80;88.50;;;;;;8275383;28;20071;-70
2021/03/27 03:50:12;;;;;;;12.63;7.97;;;9.70;88.70;;;;;;8270005;28;20100;-71
2021/03/27 03:54:34;;;;;;;12.20;7.53;;;9.50;90.00;;;;;;8282521;28;20049;-71
2021/03/27 03:58:50;;;;;;;11.85;7.93;;;9.40;90.70;;;;;;8276890;28;20375;-71
2021/03/27 04:03:18;;;;;;;15.57;8.70;;;9.20;92.00;;;;;;8273571;28;21524;-71
2021/03/27 04:07:33;;;;;;;14.77;9.43;;;9.00;92.70;;;;;;8291314;28;20038;-71
2021/03/27 04:11:56;;;;;;;16.98;9.98;;;8.80;92.10;;;;;;8291160;28;20045;-72
2021/03/27 04:16:09;;;;;;;17.25;9.30;;;8.70;92.80;;;;;;8294356;28;20124;-72
2021/03/27 04:20:20;;;;;;;18.63;9.13;;;8.50;93.50;;;;;;8286629;28;20691;-72
2021/03/27 04:24:37;;;;;;;14.98;7.07;;;8.30;94.00;;;;;;8274442;28;20281;-72
2021/03/27 04:29:10;;;;;;;5.63;3.40;;;8.20;94.00;;;;;;8275059;28;20060;-72
2021/03/27 04:33:32;;;;;;;6.32;2.53;;;8.00;93.50;;;;;;8290833;28;20154;-72
2021/03/27 04:37:46;;;;;;;4.07;1.10;;;7.80;93.30;;;;;;8275777;28;20052;-72
2021/03/27 04:42:20;;;;;;;;;;;7.60;93.40;;;;;;8285244;28;20061;-72
2021/03/27 04:46:54;;;;;;;4.38;1.42;;;7.30;94.80;;;;;;8292061;28;19975;-72
2021/03/27 04:51:38;;;;;;;2.83;1.20;;;7.20;94.10;;;;;;8284138;28;20064;-73
2021/03/27 04:56:13;;;;;;;5.97;1.05;;;7.00;94.10;;;;;;8278181;28;20515;-72
2021/03/27 05:00:57;;;;;;;2.53;0.90;;;7.00;93.60;;;;;;8288010;28;20081;-73
2021/03/27 05:05:24;;;;;;;5.43;0.90;;;6.90;93.40;;;;;;8277518;28;20046;-73
2021/03/27 05:09:37;;;;;;;1.50;0.65;;;6.90;93.20;;;;;;8279875;28;20052;-72
2021/03/27 05:13:50;;;;;;;3.17;0.60;;;6.90;93.40;;;;;;8275376;28;20057;-72
2021/03/27 05:18:13;;;;;;;3.13;0.70;;;6.80;93.60;;;;;;8298617;28;20050;-72
2021/03/27 05:22:26;;;;;;;3.50;0.80;;;6.70;94.00;;;;;;8266253;28;20137;-72
2021/03/27 05:26:45;;;;;;;5.50;0.80;;;6.60;93.90;;;;;;8290767;28;20107;-72
2021/03/27 05:30:54;;;;;;;2.67;1.00;;;6.50;94.10;;;;;;8269285;28;20053;-72
2021/03/27 05:35:24;;;;;;;2.28;0.90;;;6.50;94.50;;;;;;8279007;28;20049;-74
2021/03/27 05:39:39;;;;;;;2.95;0.70;;;7.60;94.10;;;;;;8277025;28;20045;-71
2021/03/27 05:43:52;;;;;;;4.72;0.90;;;6.30;93.80;;;;;;8291653;28;20041;-71
2021/03/27 05:48:18;;;;;;;3.90;0.85;;;6.30;93.50;;;;;;8257718;28;20077;-70
2021/03/27 05:52:33;;;;;;;1.88;0.55;;;6.30;93.40;;;;;;8291303;28;20184;-71
2021/03/27 05:57:17;;;;;;;3.90;1.08;;;6.20;94.20;;;;;;8274774;28;20049;-71
2021/03/27 06:01:42;;;;;;;2.20;0.40;;;6.10;94.10;;;;;;8294816;28;20753;-72
2021/03/27 06:06:08;;;;;;;1.95;0.47;;;6.00;93.70;;;;;;8288147;28;20076;-70
2021/03/27 06:10:21;;;;;;;3.17;0.68;;;5.90;93.60;;;;;;8307280;28;20533;-71
2021/03/27 06:14:53;;;;;;;3.88;1.02;;;5.90;93.90;;;;;;8306362;28;20064;-71
2021/03/27 06:19:16;;;;;;;2.85;0.70;;;5.90;93.70;;;;;;8278057;28;20050;-71
2021/03/27 06:23:47;;;;;;;3.70;1.02;;;5.90;93.20;;;;;;8278261;28;20498;-70
2021/03/27 06:28:13;;;;;;;3.10;0.77;;;5.80;94.10;;;;;;8281309;28;20131;-70
2021/03/27 06:32:51;;;;;;;2.42;0.60;;;5.80;93.80;;;;;;8298445;28;20057;-71
2021/03/27 06:37:41;;;;;;;3.30;0.50;;;5.80;93.80;;;;;;8294929;28;20054;-65
2021/03/27 06:42:17;;;;;;;2.08;0.68;;;5.70;93.50;;;;;;8290442;28;20049;-70
2021/03/27 06:46:45;;;;;;;1.45;0.50;;;5.80;93.30;;;;;;8291798;28;20107;-72
2021/03/27 06:51:23;;;;;;;1.35;0.50;;;5.80;94.00;;;;;;8287109;28;20061;-72
2021/03/27 06:55:32;;;;;;;1.75;0.60;;;5.90;93.50;;;;;;8264791;28;20076;-71
2021/03/27 07:00:14;;;;;;;1.30;0.40;;;5.90;94.10;;;;;;8270392;28;20045;-71
2021/03/27 07:04:53;;;;;;;1.50;0.50;;;5.80;93.50;;;;;;8275605;28;20052;-70
2021/03/27 07:09:30;;;;;;;5.55;0.50;;;5.80;93.70;;;;;;8275313;28;20064;-70
2021/03/27 07:13:46;;;;;;;0.80;0.43;;;5.80;94.00;;;;;;8275894;28;20041;-70
2021/03/27 07:18:14;;;;;;;2.25;0.52;;;5.90;94.00;;;;;;8285423;28;20041;-69
2021/03/27 07:22:39;;;;;;;1.40;0.50;;;5.90;94.40;;;;;;8267217;28;20984;-70
2021/03/27 07:27:38;;;;;;;1.85;0.70;;;5.90;94.60;;;;;;8285402;28;20822;-70
2021/03/27 07:32:21;;;;;;;3.22;0.88;;;6.00;93.90;;;;;;8250307;28;20057;-70
2021/03/27 07:36:47;;;;;;;2.72;0.57;;;5.90;94.00;;;;;;8287370;28;20085;-70
2021/03/27 07:41:05;;;;;;;1.40;0.30;;;6.00;94.00;;;;;;8287830;28;20060;-70
2021/03/27 07:45:36;;;;;;;4.57;0.85;;;6.00;93.10;;;;;;8291077;28;20042;-70
2021/03/27 07:50:09;;;;;;;4.85;0.90;;;6.00;94.60;;;;;;8253696;28;20067;-69
2021/03/27 07:54:40;;;;;;;1.60;0.40;;;6.00;94.60;;;;;;8280892;28;20059;-69
2021/03/27 07:59:23;;;;;;;1.30;0.40;;;6.00;93.60;;;;;;8302197;28;20418;-69
2021/03/27 08:03:48;;;;;;;4.45;0.50;;;6.10;94.40;;;;;;8290700;28;20050;-64
2021/03/27 08:08:12;;;;;;;1.02;0.50;;;6.00;93.90;;;;;;8271540;28;20045;-65
2021/03/27 08:12:27;;;;;;;3.65;0.60;;;6.10;94.60;;;;;;8267159;28;20049;-67
2021/03/27 08:16:42;;;;;;;3.70;0.55;;;6.20;94.90;;;;;;8291874;28;20072;-66
2021/03/27 08:20:57;;;;;;;2.50;0.40;;;6.20;95.00;;;;;;8278688;28;22384;-68
2021/03/27 08:25:28;;;;;;;2.15;0.47;;;6.20;96.90;;;;;;8268357;28;20159;-68
2021/03/27 08:30:00;;;;;;;6.28;0.60;;;6.20;95.20;;;;;;8255331;28;20056;-68
2021/03/27 08:34:25;;;;;;;2.28;0.60;;;6.30;94.50;;;;;;8261577;28;21815;-69
2021/03/27 08:38:32;;;;;;;2.88;0.65;;;6.30;94.50;;;;;;8281063;28;20061;-70
2021/03/27 08:43:11;;;;;;;2.22;0.82;;;6.40;95.70;;;;;;8268627;28;20828;-68
2021/03/27 08:47:32;;;;;;;6.68;1.80;;;6.60;95.00;;;;;;8289597;28;20045;-68
2021/03/27 08:51:57;;;;;;;8.30;1.25;;;6.70;94.40;;;;;;8297333;28;20048;-69
2021/03/27 08:56:13;;;;;;;6.32;1.13;;;6.80;94.90;;;;;;8170467;28;20068;-67
2021/03/27 09:00:39;;;;;;;6.38;1.40;;;6.90;94.60;;;;;;8114534;28;20102;-69
2021/03/27 09:04:54;;;;;;;5.32;1.60;;;6.90;94.50;;;;;;8287116;28;20054;-68
2021/03/27 09:09:22;;;;;;;8.30;1.58;;;7.00;94.80;;;;;;8162931;28;20097;-72
2021/03/27 09:13:53;;;;;;;9.27;2.03;;;7.10;95.40;;;;;;8245735;28;20038;-69
2021/03/27 09:18:31;;;;;;;14.25;2.75;;;7.10;95.50;;;;;;8284868;28;20060;-69
2021/03/27 09:22:41;;;;;;;16.23;2.00;;;7.20;94.50;;;;;;8293961;28;20058;-69
2021/03/27 09:27:15;;;;;;;8.98;2.17;;;7.30;94.30;;;;;;8236151;28;20049;-69
2021/03/27 09:31:51;;;;;;;12.63;2.47;;;7.40;95.60;;;;;;8290371;28;20051;-67
2021/03/27 09:36:16;;;;;;;14.25;2.63;;;7.50;94.90;;;;;;8122760;28;20061;-67
2021/03/27 09:40:39;;;;;;;15.25;2.72;;;7.60;95.00;;;;;;8251088;28;20057;-68
2021/03/27 09:45:10;;;;;;;12.65;2.20;;;7.70;94.10;;;;;;8264005;28;20125;-71
2021/03/27 09:49:37;;;;;;;9.10;2.78;;;7.90;94.50;;;;;;8262934;28;20411;-71
2021/03/27 09:54:02;;;;;;;19.77;3.55;;;8.10;94.30;;;;;;8252030;28;20049;-69
2021/03/27 09:58:40;;;;;;;22.77;3.55;;;8.10;94.30;;;;;;8256253;28;20111;-69
2021/03/27 10:03:09;;;;;;;20.33;4.57;;;8.00;93.90;;;;;;8240365;28;20050;-69
2021/03/27 10:07:49;;;;;;;13.35;3.85;;;8.10;94.40;;;;;;8288344;28;20116;-68
2021/03/27 10:12:08;;;;;;;11.73;3.13;;;8.30;94.10;;;;;;8287920;28;20255;-67
2021/03/27 10:16:18;;;;;;;14.43;3.65;;;8.40;93.50;;;;;;8278792;28;20132;-68
2021/03/27 10:20:42;;;;;;;11.77;3.05;;;8.70;93.20;;;;;;8298359;28;20045;-69
2021/03/27 10:24:50;;;;;;;21.70;3.05;;;8.90;93.20;;;;;;8291314;28;20076;-68
2021/03/27 10:34:04;;;;;;;13.88;3.03;;;9.50;91.70;;;;;;8289523;28;20050;-67
2021/03/27 10:38:13;;;;;;;16.15;3.30;;;9.80;90.40;;;;;;8290836;28;20092;-68
2021/03/27 10:42:39;;;;;;;18.35;4.15;;;9.80;90.40;;;;;;8291533;28;20959;-69
2021/03/27 10:46:55;;;;;;;11.60;2.63;;;9.90;90.70;;;;;;8304941;28;20046;-69
2021/03/27 10:51:26;;;;;;;16.38;2.85;;;10.10;90.60;;;;;;8287645;28;20045;-71
2021/03/27 10:55:31;;;;;;;10.77;1.90;;;10.10;90.60;;;;;;8292098;28;20049;-68
2021/03/27 11:00:02;;;;;;;12.73;2.50;;;9.90;90.50;;;;;;8262886;28;20057;-68
2021/03/27 11:04:46;;;;;;;18.75;3.30;;;9.70;90.40;;;;;;8291541;28;20400;-68
2021/03/27 11:09:17;;;;;;;12.90;2.35;;;9.60;90.70;;;;;;8266532;28;20507;-69
2021/03/27 11:13:33;;;;;;;15.07;2.40;;;9.30;90.40;;;;;;8294723;28;20050;-69
2021/03/27 11:17:50;;;;;;;15.48;3.15;;;9.20;90.60;;;;;;8300949;28;20120;-68
2021/03/27 11:22:06;;;;;;;17.20;3.38;;;9.00;90.90;;;;;;8293860;28;20061;-71
2021/03/27 11:26:35;;;;;;;18.27;2.70;;;8.80;91.30;;;;;;8296679;28;20099;-68
2021/03/27 11:31:06;;;;;;;16.33;3.83;;;8.70;91.40;;;;;;8277018;28;20465;-66
2021/03/27 11:35:25;;;;;;;22.23;3.17;;;8.60;91.60;;;;;;8273919;28;20041;-71
2021/03/27 11:39:45;;;;;;;20.70;3.22;;;8.50;91.80;;;;;;8275857;28;20080;-68
2021/03/27 11:44:21;;;;;;;19.98;3.40;;;8.60;91.70;;;;;;8305952;28;20043;-69
2021/03/27 11:48:35;;;;;;;19.05;3.65;;;8.60;91.40;;;;;;8271403;28;20084;-69
2021/03/27 11:52:49;;;;;;;17.70;3.35;;;8.50;91.40;;;;;;8296258;28;20055;-70
2021/03/27 11:57:14;;;;;;;14.65;2.50;;;8.50;91.50;;;;;;8281167;28;20618;-68
2021/03/27 12:01:19;;;;;;;13.85;3.05;;;8.50;91.50;;;;;;8294570;28;20115;-67
2021/03/27 12:05:48;;;;;;;15.77;3.40;;;8.70;91.60;;;;;;8274272;28;23727;-70
2021/03/27 12:10:00;;;;;;;18.27;3.17;;;9.00;91.20;;;;;;8296340;28;20049;-68
2021/03/27 12:14:26;;;;;;;13.48;3.25;;;9.40;90.30;;;;;;8292492;28;20615;-70
2021/03/27 12:18:48;;;;;;;9.00;2.38;;;9.50;89.20;;;;;;8289887;28;21145;-68
2021/03/27 12:23:08;;;;;;;13.40;2.63;;;9.70;89.90;;;;;;8272814;28;20041;-69
2021/03/27 12:27:30;;;;;;;12.48;2.92;;;9.80;88.70;;;;;;8290359;28;20049;-68
2021/03/27 12:31:58;;;;;;;14.10;3.35;;;9.70;89.40;;;;;;8293344;28;20057;-72
2021/03/27 12:36:21;;;;;;;9.55;2.45;;;9.70;89.00;;;;;;8299004;28;20044;-67
2021/03/27 12:40:36;;;;;;;15.75;3.17;;;9.60;89.10;;;;;;8294998;28;20037;-68
2021/03/27 12:44:51;;;;;;;14.05;2.65;;;9.40;90.00;;;;;;8286687;28;20041;-69
2021/03/27 12:49:28;;;;;;;15.60;3.03;;;9.40;90.40;;;;;;8291219;28;20049;-67
2021/03/27 12:53:54;;;;;;;10.48;2.08;;;9.40;90.00;;;;;;8281953;28;20115;-71
2021/03/27 12:58:27;;;;;;;12.32;2.53;;;9.40;90.20;;;;;;8265419;28;20113;-68
2021/03/27 13:02:56;;;;;;;9.88;2.25;;;9.40;89.60;;;;;;8290270;28;20057;-69
2021/03/27 13:07:34;;;;;;;8.90;2.05;;;9.30;89.20;;;;;;8279740;28;20049;-70
2021/03/27 13:11:54;;;;;;;9.13;1.90;;;9.10;89.80;;;;;;8275638;28;20034;-72
2021/03/27 13:16:04;;;;;;;9.13;2.15;;;9.00;90.20;;;;;;8271516;28;20209;-66
2021/03/27 13:20:37;;;;;;;;;;;9.00;90.30;;;;;;8257617;28;20499;-66
2021/03/27 13:25:04;;;;;;;10.80;2.17;;;8.80;90.30;;;;;;8250650;28;19944;-66
2021/03/27 13:29:37;;;;;;;8.07;1.70;;;8.60;91.00;;;;;;8272583;28;20085;-66
2021/03/27 13:33:50;;;;;;;10.98;2.15;;;8.60;91.20;;;;;;8276736;28;20087;-66
2021/03/27 13:38:12;;;;;;;10.02;1.92;;;8.80;91.20;;;;;;8281431;28;20057;-65
2021/03/27 13:42:43;;;;;;;7.63;1.40;;;8.90;91.00;;;;;;8269078;28;20107;-66
2021/03/27 13:46:59;;;;;;;7.20;1.35;;;8.80;90.70;;;;;;8243549;28;20065;-68
2021/03/27 13:51:35;;;;;;;8.25;1.58;;;8.70;90.80;;;;;;8273328;28;20483;-72
2021/03/27 13:56:17;;;;;;;7.07;1.20;;;8.70;91.10;;;;;;8288822;28;20034;-70
2021/03/27 14:00:29;;;;;;;9.23;1.42;;;8.70;90.20;;;;;;8257997;28;20049;-69
2021/03/27 14:04:45;;;;;;;7.82;1.08;;;8.60;91.10;;;;;;8275656;28;20038;-70
2021/03/27 14:09:23;;;;;;;8.50;1.60;;;8.70;90.60;;;;;;8277900;28;20081;-70
2021/03/27 14:13:39;;;;;;;9.52;1.73;;;8.70;90.70;;;;;;8287307;28;20049;-68
2021/03/27 14:17:53;;;;;;;10.55;2.20;;;8.80;90.70;;;;;;8262220;28;20089;-68
2021/03/27 14:22:33;;;;;;;5.60;1.30;;;8.70;90.90;;;;;;8249274;28;20141;-68
2021/03/27 14:27:01;;;;;;;16.20;1.83;;;8.50;91.30;;;;;;8240461;28;20061;-69
2021/03/27 14:31:39;;;;;;;16.33;2.20;;;8.40;91.70;;;;;;8265433;28;20050;-70
2021/03/27 14:36:16;;;;;;;13.45;2.10;;;8.30;92.40;;;;;;8293882;28;20157;-68
2021/03/27 14:40:44;;;;;;;14.82;2.38;;;8.40;92.50;;;;;;8283099;28;20049;-71
2021/03/27 14:45:30;;;;;;;14.65;2.35;;;8.30;92.40;;;;;;8271610;28;20041;-70
2021/03/27 14:50:05;;;;;;;8.68;1.27;;;8.40;92.40;;;;;;8286640;28;20077;-69
2021/03/27 14:54:30;;;;;;;18.20;2.70;;;8.30;91.90;;;;;;8279004;28;20069;-69
2021/03/27 14:59:11;;;;;;;17.95;2.78;;;8.10;92.60;;;;;;8279384;28;20075;-69
2021/03/27 15:03:28;;;;;;;15.38;2.17;;;8.00;93.10;;;;;;8257630;28;20054;-69
2021/03/27 15:07:42;;;;;;;13.93;1.90;;;7.90;93.60;;;;;;8284745;28;20049;-69
2021/03/27 15:12:04;;;;;;;12.27;1.75;;;8.00;92.90;;;;;;8293260;28;20525;-72
2021/03/27 15:16:28;;;;;;;11.00;2.35;;;7.90;93.10;;;;;;8279460;28;20045;-72
2021/03/27 15:20:38;;;;;;;8.07;1.80;;;8.00;92.80;;;;;;8294141;28;20132;-68
2021/03/27 15:30:04;;;;;;;13.30;2.33;;;8.00;92.70;;;;;;8288786;28;20049;-71
2021/03/27 15:34:19;;;;;;;7.57;1.42;;;7.90;92.60;;;;;;8246253;28;20050;-72
2021/03/27 15:39:14;;;;;;;10.10;2.17;;;8.00;92.70;;;;;;8277331;28;20041;-69
2021/03/27 15:43:31;;;;;;;17.63;2.40;;;8.00;92.80;;;;;;8271317;28;20037;-69
2021/03/27 15:47:39;;;;;;;13.82;2.58;;;8.10;92.50;;;;;;8290221;28;21226;-70
2021/03/27 15:52:12;;;;;;;17.30;2.30;;;8.20;92.60;;;;;;8296616;28;20045;-69
2021/03/27 15:56:22;;;;;;;18.90;3.13;;;8.20;92.40;;;;;;8259546;28;20049;-70
2021/03/27 16:00:49;;;;;;;;;;;8.00;92.30;;;;;;8276468;28;20458;-69
2021/03/27 16:04:55;;;;;;;17.33;3.40;;;7.90;92.90;;;;;;8289912;28;20506;-69
2021/03/27 16:09:32;;;;;;;10.73;1.95;;;7.80;92.50;;;;;;8280267;28;20046;-70
2021/03/27 16:14:05;;;;;;;11.63;2.05;;;7.70;92.80;;;;;;8297807;28;20076;-70
2021/03/27 16:18:42;;;;;;;14.02;2.65;;;7.70;92.90;;;;;;8267794;28;20053;-69
2021/03/27 16:23:00;;;;;;;15.90;2.38;;;7.80;93.10;;;;;;8281076;28;20052;-69
2021/03/27 16:27:51;;;;;;;11.85;2.92;;;7.70;93.10;;;;;;8293801;28;20127;-68
2021/03/27 16:32:13;;;;;;;10.85;2.20;;;7.70;92.80;;;;;;8291795;28;20423;-69
2021/03/27 16:36:25;;;;;;;10.60;2.33;;;7.70;92.90;;;;;;8293729;28;20057;-69
2021/03/27 16:40:39;;;;;;;11.98;2.95;;;7.70;92.80;;;;;;8270354;28;20046;-69
2021/03/27 16:45:07;;;;;;;14.85;2.60;;;7.70;92.80;;;;;;8291545;28;20103;-68
2021/03/27 16:49:37;;;;;;;14.82;3.00;;;7.60;92.90;;;;;;8279442;28;20049;-70
2021/03/27 16:54:09;;;;;;;11.57;2.53;;;7.60;93.10;;;;;;8283669;28;20063;-67
2021/03/27 16:58:18;;;;;;;15.95;2.80;;;7.60;93.00;;;;;;8296833;28;20053;-70
2021/03/27 17:02:41;;;;;;;12.65;2.80;;;7.60;93.10;;;;;;8267760;28;20062;-69
2021/03/27 17:07:27;;;;;;;18.25;3.55;;;7.60;93.00;;;;;;8291175;28;20046;-69
2021/03/27 17:12:08;;;;;;;17.00;2.22;;;7.50;92.90;;;;;;8258476;28;20503;-70
2021/03/27 17:16:17;;;;;;;14.35;2.72;;;7.50;92.80;;;;;;8292561;28;20049;-69
2021/03/27 17:20:33;;;;;;;16.48;3.20;;;7.50;92.70;;;;;;8298753;28;20054;-69
2021/03/27 17:24:47;;;;;;;15.95;2.47;;;7.50;92.70;;;;;;8285171;28;20050;-67
2021/03/27 17:29:13;;;;;;;16.98;3.33;;;7.50;92.80;;;;;;8296653;28;20551;-72
2021/03/27 17:33:37;;;;;;;27.15;7.78;;;7.40;93.00;;;;;;8297535;28;20060;-72
2021/03/27 17:37:58;;;;;;;28.60;5.00;;;7.40;93.00;;;;;;8295169;28;20526;-70
2021/03/27 17:42:20;;;;;;;26.20;4.22;;;7.40;93.10;;;;;;8293620;28;20084;-72
2021/03/27 17:46:32;;;;;;;31.93;4.30;;;7.40;92.90;;;;;;8290196;28;20145;-71
2021/03/27 17:50:44;;;;;;;24.15;4.80;;;7.30;93.00;;;;;;8280284;28;20048;-69
2021/03/27 17:55:05;;;;;;;26.23;4.40;;;7.30;92.90;;;;;;8300692;28;20329;-72
2021/03/27 17:59:42;;;;;;;26.52;4.47;;;7.30;92.90;;;;;;8297491;28;20053;-70
2021/03/27 18:03:46;;;;;;;25.88;4.30;;;7.30;92.90;;;;;;8275796;28;20052;-69
2021/03/27 18:07:55;;;;;;;25.50;3.83;;;7.20;92.90;;;;;;8293146;28;20507;-70
2021/03/27 18:12:12;;;;;;;;;;;7.20;92.80;;;;;;8292699;28;20061;-70
2021/03/27 18:16:25;;;;;;;22.90;4.28;;;7.20;92.90;;;;;;8293259;28;19925;-73
2021/03/27 18:20:48;;;;;;;22.50;4.03;;;7.10;92.70;;;;;;8283265;28;20045;-69
2021/03/27 18:25:05;;;;;;;27.75;3.78;;;7.00;92.90;;;;;;8295355;28;20088;-71
2021/03/27 18:29:29;;;;;;;15.82;3.90;;;7.00;92.80;;;;;;8267521;28;20085;-69
2021/03/27 18:34:08;;;;;;;25.13;4.00;;;6.90;92.90;;;;;;8287728;28;20041;-69
2021/03/27 18:38:25;;;;;;;16.40;3.55;;;6.90;92.80;;;;;;8286136;28;20132;-68
2021/03/27 18:42:48;;;;;;;36.72;4.55;;;6.80;92.80;;;;;;8296648;28;20085;-72
2021/03/27 18:46:57;;;;;;;28.90;4.38;;;6.80;92.90;;;;;;8277026;28;20644;-68
2021/03/27 18:51:11;;;;;;;33.42;4.15;;;6.70;92.80;;;;;;8281531;28;20049;-71
2021/03/27 18:55:22;;;;;;;28.58;4.78;;;6.60;92.90;;;;;;8283445;28;20099;-70
2021/03/27 18:59:34;;;;;;;23.00;4.20;;;6.50;92.90;;;;;;8299811;28;20271;-68
2021/03/27 19:03:44;;;;;;;20.25;3.53;;;6.50;92.80;;;;;;8298081;28;20038;-71
2021/03/27 19:08:20;;;;;;;33.42;6.78;;;6.40;92.80;;;;;;8294785;28;20049;-70
2021/03/27 19:12:34;;;;;;;23.02;4.40;;;6.30;92.90;;;;;;8293004;28;20056;-72
2021/03/27 19:16:43;;;;;;;17.52;2.97;;;6.10;93.10;;;;;;8280828;28;20046;-73
2021/03/27 19:20:52;;;;;;;16.85;3.30;;;6.10;93.00;;;;;;8285974;28;20104;-74
2021/03/27 19:25:28;;;;;;;25.75;3.38;;;6.10;92.90;;;;;;8305380;28;20972;-73
2021/03/27 19:29:46;;;;;;;22.88;4.07;;;6.00;92.80;;;;;;8256195;28;20100;-71
2021/03/27 19:34:14;;;;;;;23.70;4.45;;;5.90;93.00;;;;;;8267899;28;20556;-71
2021/03/27 19:38:48;;;;;;;16.48;3.38;;;5.90;92.90;;;;;;8280827;28;20045;-71
2021/03/27 19:43:09;;;;;;;18.80;3.00;;;5.80;92.70;;;;;;8255356;28;20101;-72
2021/03/27 19:47:27;;;;;;;21.35;3.30;;;5.80;92.90;;;;;;8269512;28;20119;-72
2021/03/27 19:51:55;;;;;;;17.77;3.78;;;5.70;93.20;;;;;;8280099;28;20058;-71
2021/03/27 19:56:08;;;;;;;17.13;3.10;;;5.60;93.10;;;;;;8273019;28;20049;-71
2021/03/27 20:00:35;;;;;;;17.23;3.38;;;5.50;93.10;;;;;;8292099;28;20046;-72
2021/03/27 20:04:49;;;;;;;18.60;4.07;;;5.50;93.70;;;;;;8272805;28;20061;-71
2021/03/27 20:09:41;;;;;;;23.15;4.03;;;5.40;93.60;;;;;;8281195;28;20085;-72
2021/03/27 20:13:55;;;;;;;24.80;4.22;;;5.30;94.20;;;;;;8240202;28;20080;-73
2021/03/27 20:18:14;;;;;;;20.33;4.40;;;5.30;93.40;;;;;;8270900;28;20095;-72
2021/03/27 20:22:46;;;;;;;17.20;3.30;;;5.30;93.30;;;;;;8271355;28;20549;-72
2021/03/27 20:27:01;;;;;;;19.33;3.58;;;5.20;94.30;;;;;;8242245;28;20410;-71
2021/03/27 20:31:41;;;;;;;15.18;2.80;;;5.20;94.70;;;;;;8283464;28;20400;-72
2021/03/27 20:35:59;;;;;;;16.27;4.25;;;5.10;95.60;;;;;;8260100;28;20077;-73
2021/03/27 20:40:10;;;;;;;21.02;3.65;;;5.10;93.90;;;;;;8272787;28;20661;-72
2021/03/27 20:44:20;;;;;;;26.77;6.57;;;5.10;93.60;;;;;;8293183;28;20393;-71
2021/03/27 20:48:40;;;;;;;28.95;5.43;;;5.10;94.00;;;;;;8274777;28;20050;-72
2021/03/27 20:52:56;;;;;;;37.05;6.18;;;5.10;94.20;;;;;;8270216;28;20053;-71
2021/03/27 20:57:14;;;;;;;20.75;4.82;;;4.90;93.60;;;;;;8278473;28;20427;-72
2021/03/27 21:01:21;;;;;;;19.15;3.05;;;5.10;94.00;;;;;;8284841;28;20514;-72
2021/03/27 21:05:38;;;;;;;11.15;2.20;;;5.00;94.40;;;;;;8272184;28;20313;-73
2021/03/27 21:10:00;;;;;;;18.73;2.50;;;5.00;95.10;;;;;;8265580;28;20124;-72
2021/03/27 21:14:16;;;;;;;17.38;2.80;;;5.00;94.00;;;;;;8254946;28;20045;-72
2021/03/27 21:18:24;;;;;;;15.60;2.38;;;5.00;94.30;;;;;;8273177;28;20054;-72
2021/03/27 21:22:45;;;;;;;18.75;4.10;;;5.00;94.10;;;;;;8280325;28;20046;-72
2021/03/27 21:27:00;;;;;;;14.52;3.03;;;5.00;94.00;;;;;;8270224;28;20466;-72
2021/03/27 21:31:17;;;;;;;17.52;2.67;;;5.10;93.80;;;;;;8274789;28;20389;-71
2021/03/27 21:35:32;;;;;;;12.70;2.75;;;5.00;94.10;;;;;;8255055;28;20119;-70
2021/03/27 21:39:50;;;;;;;17.20;3.05;;;4.90;93.60;;;;;;8253364;28;20061;-71
2021/03/27 21:44:04;;;;;;;12.93;2.78;;;4.90;93.90;;;;;;8276888;28;20611;-72
2021/03/27 21:48:40;;;;;;;15.32;1.83;;;4.90;93.90;;;;;;8274088;28;20053;-71
2021/03/27 21:53:14;;;;;;;12.30;2.70;;;4.80;94.30;;;;;;8238265;28;20438;-72
2021/03/27 21:57:53;;;;;;;10.52;2.00;;;4.80;94.40;;;;;;8251417;28;20053;-70
2021/03/27 22:02:06;;;;;;;17.13;2.42;;;4.70;94.30;;;;;;8274204;28;21543;-69
2021/03/27 22:06:28;;;;;;;;;;;4.70;94.10;;;;;;8253518;28;20564;-70
2021/03/27 22:10:42;;;;;;;;;;;4.70;96.40;;;;;;8267939;28;19925;-70
2021/03/27 22:14:57;;;;;;;10.95;1.70;;;4.80;97.20;;;;;;8280153;28;19921;-70
2021/03/27 22:19:46;;;;;;;13.23;1.90;;;4.60;95.90;;;;;;8255661;28;20288;-70
2021/03/27 22:24:18;;;;;;;13.50;3.20;;;4.60;96.20;;;;;;8274658;28;20127;-69
2021/03/27 22:28:50;;;;;;;14.90;2.80;;;4.70;96.50;;;;;;8280754;28;20530;-69
2021/03/27 22:33:12;;;;;;;13.85;2.83;;;4.70;96.30;;;;;;8279484;28;20084;-70
2021/03/27 22:37:27;;;;;;;11.60;1.88;;;4.60;96.80;;;;;;8296522;28;20132;-69
2021/03/27 22:41:34;;;;;;;18.55;3.05;;;4.70;97.50;;;;;;8286721;28;20072;-69
2021/03/27 22:45:52;;;;;;;19.02;2.83;;;4.60;97.10;;;;;;8299415;28;20076;-69
2021/03/27 22:50:27;;;;;;;16.90;2.45;;;4.70;96.60;;;;;;8267152;28;20099;-69
2021/03/27 22:54:32;;;;;;;15.87;2.73;;;4.70;96.30;;;;;;8286216;28;20042;-70
2021/03/27 22:58:52;;;;;;;17.00;2.63;;;4.60;96.80;;;;;;8280014;28;20054;-68
2021/03/27 23:03:03;;;;;;;15.93;2.42;;;4.80;96.50;;;;;;8255404;28;20053;-69
2021/03/27 23:07:19;;;;;;;16.52;2.05;;;4.70;96.90;;;;;;8284770;28;20428;-69